createdAt,value
2019-01-28T00:03:36.217Z,97640.06
2019-01-28T00:08:38.890Z,97655.88
2019-01-28T00:13:40.817Z,97659.88
2019-01-28T00:18:42.734Z,97667.33
2019-01-28T00:23:44.655Z,97684.45
2019-01-28T00:28:46.632Z,97698.94
2019-01-28T00:33:48.532Z,97719.50
2019-01-28T00:38:50.566Z,97728.42
2019-01-28T00:43:52.568Z,97731.44
2019-01-28T00:48:54.480Z,97742.55
2019-01-28T00:54:00.099Z,97752.00
2019-01-28T00:59:02.866Z,97762.81
2019-01-28T01:04:04.948Z,97774.30
2019-01-28T01:09:08.675Z,97781.80
2019-01-28T01:14:10.570Z,97800.08
2019-01-28T01:19:12.596Z,97800.44
2019-01-28T01:24:14.532Z,97816.05
2019-01-28T01:29:16.550Z,97832.16
2019-01-28T01:34:18.459Z,97837.83
2019-01-28T01:39:20.729Z,97854.55
2019-01-28T01:44:22.639Z,97849.36
2019-01-28T01:49:25.317Z,97857.17
2019-01-28T01:54:27.415Z,97857.17
2019-01-28T01:59:29.390Z,97862.62
2019-01-28T02:04:31.408Z,97868.83
2019-01-28T02:09:33.365Z,97873.08
2019-01-28T02:14:55.341Z,97875.41
2019-01-28T02:19:57.250Z,97885.41
2019-01-28T02:24:59.184Z,97868.92
2019-01-28T02:30:01.203Z,97872.75
2019-01-28T02:35:04.491Z,97869.55
2019-01-28T02:40:09.722Z,97889.94
2019-01-28T02:45:12.915Z,97903.08
2019-01-28T02:50:16.403Z,97900.78
2019-01-28T02:55:18.926Z,97895.52
2019-01-28T03:00:23.095Z,97895.52
2019-01-28T03:05:25.115Z,97899.57
2019-01-28T03:10:27.188Z,97909.04
2019-01-28T03:15:29.093Z,97909.04
2019-01-28T03:20:31.015Z,97899.87
2019-01-28T03:25:33.132Z,97911.48
2019-01-28T03:30:35.085Z,97922.39
2019-01-28T03:35:37.091Z,97927.91
2019-01-28T03:40:40.036Z,97927.34
2019-01-28T03:45:41.928Z,97936.36
2019-01-28T03:50:43.856Z,97950.39
2019-01-28T03:55:45.978Z,97950.39
2019-01-28T04:00:48.112Z,97950.87
2019-01-28T04:05:50.187Z,97958.50
2019-01-28T04:10:52.184Z,97958.50
2019-01-28T04:15:54.085Z,97960.88
2019-01-28T04:20:56.210Z,97950.63
2019-01-28T04:25:58.159Z,97954.78
2019-01-28T04:31:00.115Z,97960.23
2019-01-28T04:36:02.082Z,97970.31
2019-01-28T04:41:03.994Z,97957.04
2019-01-28T04:46:06.106Z,97956.88
2019-01-28T04:51:08.114Z,97963.09
2019-01-28T04:56:10.131Z,97968.25
2019-01-28T05:01:12.351Z,97961.46
2019-01-28T05:06:14.273Z,97959.67
2019-01-28T05:11:16.225Z,97956.22
2019-01-28T05:16:18.261Z,97964.42
2019-01-28T05:21:21.203Z,97956.88
2019-01-28T05:26:23.199Z,97952.88
2019-01-28T05:31:25.376Z,97946.26
2019-01-28T05:36:27.296Z,97952.06
2019-01-28T05:41:29.220Z,97946.33
2019-01-28T05:46:31.240Z,97950.02
2019-01-28T05:51:33.284Z,97944.02
2019-01-28T05:56:35.623Z,97939.29
2019-01-28T06:01:37.742Z,97939.29
2019-01-28T06:06:39.955Z,97945.06
2019-01-28T06:11:41.948Z,97939.61
2019-01-28T06:16:43.954Z,97942.95
2019-01-28T06:21:45.904Z,97931.40
2019-01-28T06:26:47.831Z,97931.40
2019-01-28T06:31:49.764Z,97926.29
2019-01-28T06:36:51.774Z,97930.63
2019-01-28T06:41:53.765Z,97926.55
2019-01-28T06:46:55.788Z,97929.14
2019-01-28T06:51:59.311Z,97918.45
2019-01-28T06:57:01.330Z,97915.84
2019-01-28T07:02:03.828Z,97915.20
2019-01-28T07:07:05.829Z,97914.02
2019-01-28T07:12:08.071Z,97920.84
2019-01-28T07:17:10.014Z,97927.77
2019-01-28T07:22:12.031Z,97928.72
2019-01-28T07:27:13.939Z,97937.64
2019-01-28T07:32:17.058Z,97936.48
2019-01-28T07:37:19.093Z,97933.48
2019-01-28T07:42:21.005Z,97960.95
2019-01-28T07:47:22.925Z,97935.77
2019-01-28T07:52:25.049Z,97944.09
2019-01-28T07:57:26.962Z,97947.91
2019-01-28T08:02:28.897Z,97939.94
2019-01-28T08:07:30.941Z,97944.41
2019-01-28T08:12:32.925Z,97944.48
2019-01-28T08:17:34.835Z,97950.10
2019-01-28T08:22:36.877Z,97956.19
2019-01-28T08:27:38.877Z,97951.13
2019-01-28T08:32:40.914Z,97951.23
2019-01-28T08:37:42.952Z,97945.22
2019-01-28T08:42:45.103Z,97932.86
2019-01-28T08:47:47.114Z,97927.91
2019-01-28T08:52:49.341Z,97926.78
2019-01-28T08:57:51.541Z,97920.69
2019-01-28T09:02:53.793Z,97916.16
2019-01-28T09:07:55.921Z,97899.08
2019-01-28T09:12:57.985Z,97903.52
2019-01-28T09:17:59.992Z,97901.02
2019-01-28T09:23:01.934Z,97905.76
2019-01-28T09:28:04.647Z,97896.38
2019-01-28T09:33:06.781Z,97889.02
2019-01-28T09:38:08.897Z,97886.20
2019-01-28T09:43:10.980Z,97886.14
2019-01-28T09:48:14.133Z,97893.77
2019-01-28T09:53:16.408Z,97893.28
2019-01-28T09:58:18.412Z,97887.98
2019-01-28T10:03:20.342Z,97887.70
2019-01-28T10:08:22.311Z,97883.50
2019-01-28T10:13:24.339Z,97884.20
2019-01-28T10:18:26.368Z,97888.42
2019-01-28T10:23:28.423Z,97887.83
2019-01-28T10:28:30.417Z,97877.14
2019-01-28T10:33:32.422Z,97881.52
2019-01-28T10:38:34.530Z,97878.94
2019-01-28T10:43:36.519Z,97885.90
2019-01-28T10:48:38.410Z,97898.36
2019-01-28T10:53:40.313Z,97885.05
2019-01-28T10:58:42.233Z,97890.83
2019-01-28T11:03:44.343Z,97893.20
2019-01-28T11:08:46.313Z,97881.44
2019-01-28T11:13:48.305Z,97873.41
2019-01-28T11:18:57.430Z,97879.16
2019-01-28T11:23:55.351Z,97875.98
2019-01-28T11:28:57.321Z,97891.13
2019-01-28T11:33:59.333Z,97887.95
2019-01-28T11:39:01.404Z,97874.48
2019-01-28T11:44:05.396Z,97881.34
2019-01-28T11:49:07.552Z,97880.45
2019-01-28T11:54:09.925Z,97869.53
2019-01-28T11:59:12.154Z,97858.51
2019-01-28T12:04:14.346Z,97865.55
2019-01-28T12:09:16.292Z,97860.52
2019-01-28T12:14:18.503Z,97862.58
2019-01-28T12:19:20.428Z,97874.23
2019-01-28T12:24:22.345Z,97880.33
2019-01-28T12:29:24.343Z,97874.11
2019-01-28T12:34:26.375Z,97881.98
2019-01-28T12:39:29.713Z,97890.46
2019-01-28T12:44:31.737Z,97895.20
2019-01-28T12:49:33.903Z,97892.40
2019-01-28T12:54:35.829Z,97882.66
2019-01-28T12:59:37.736Z,97874.65
2019-01-28T13:04:42.221Z,97882.80
2019-01-28T13:09:43.657Z,97885.41
2019-01-28T13:14:45.607Z,97882.61
2019-01-28T13:19:47.530Z,97895.91
2019-01-28T13:24:49.557Z,97884.73
2019-01-28T13:29:51.502Z,97891.36
2019-01-28T13:34:53.426Z,97888.02
2019-01-28T13:39:55.342Z,97885.47
2019-01-28T13:44:57.562Z,97903.95
2019-01-28T13:50:00.527Z,97898.60
2019-01-28T13:55:03.549Z,97903.91
2019-01-28T14:00:09.682Z,97909.12
2019-01-28T14:05:12.073Z,97916.16
2019-01-28T14:10:14.654Z,97916.86
2019-01-28T14:15:20.023Z,97911.95
2019-01-28T14:20:22.441Z,97911.95
2019-01-28T14:25:24.552Z,97925.69
2019-01-28T14:30:35.697Z,97924.62
2019-01-28T14:35:38.303Z,97930.09
2019-01-28T14:40:41.388Z,97925.86
2019-01-28T14:45:43.840Z,97935.76
2019-01-28T14:50:45.986Z,97940.56
2019-01-28T14:55:47.902Z,97946.59
2019-01-28T15:00:50.180Z,97940.58
2019-01-28T15:05:52.552Z,97948.69
2019-01-28T15:10:56.366Z,97949.14
2019-01-28T15:15:58.888Z,97947.20
2019-01-28T15:21:00.871Z,97945.50
2019-01-28T15:26:06.409Z,97947.26
2019-01-28T15:31:08.423Z,97955.01
2019-01-28T15:36:10.732Z,97951.39
2019-01-28T15:41:12.745Z,97954.96
2019-01-28T15:46:14.821Z,97958.23
2019-01-28T15:51:16.753Z,97961.54
2019-01-28T15:56:18.687Z,97968.73
2019-01-28T16:01:21.069Z,97979.19
2019-01-28T16:06:24.297Z,97988.61
2019-01-28T16:11:26.502Z,97988.76
2019-01-28T16:16:28.770Z,97994.00
2019-01-28T16:21:30.798Z,97990.44
2019-01-28T16:26:32.838Z,97997.20
2019-01-28T16:31:34.763Z,98001.05
2019-01-28T16:36:36.757Z,98004.09
2019-01-28T16:41:38.902Z,98010.09
2019-01-28T16:46:42.301Z,98011.63
2019-01-28T16:51:44.325Z,98017.73
2019-01-28T16:56:46.264Z,98020.34
2019-01-28T17:01:49.693Z,98018.36
2019-01-28T17:06:52.057Z,98021.38
2019-01-28T17:11:54.145Z,98034.70
2019-01-28T17:16:56.099Z,98041.34
2019-01-28T17:21:58.127Z,98045.82
2019-01-28T17:27:00.029Z,98037.10
2019-01-28T17:32:03.152Z,98056.84
2019-01-28T17:37:05.618Z,98057.63
2019-01-28T17:42:07.576Z,98068.23
2019-01-28T17:47:09.582Z,98071.29
2019-01-28T17:52:11.723Z,98071.61
2019-01-28T17:57:13.743Z,98082.55
2019-01-28T18:02:15.658Z,98092.80
2019-01-28T18:07:18.892Z,98092.80
2019-01-28T18:12:20.810Z,98111.86
2019-01-28T18:17:22.904Z,98111.86
2019-01-28T18:22:26.706Z,98113.50
2019-01-28T18:27:28.639Z,98123.12
2019-01-28T18:32:30.564Z,98139.17
2019-01-28T18:37:35.774Z,98140.50
2019-01-28T18:42:38.879Z,98144.81
2019-01-28T18:47:41.333Z,98151.09
2019-01-28T18:52:44.038Z,98168.11
2019-01-28T18:57:45.944Z,98169.63
2019-01-28T19:02:47.887Z,98177.22
2019-01-28T19:07:53.908Z,98188.65
2019-01-28T19:13:10.195Z,98203.05
2019-01-28T19:18:25.631Z,98196.94
2019-01-28T19:23:29.140Z,98202.56
2019-01-28T19:28:31.186Z,98226.05
2019-01-28T19:33:33.222Z,98231.19
2019-01-28T19:38:35.113Z,98239.48
2019-01-28T19:43:38.080Z,98244.12
2019-01-28T19:48:40.155Z,98253.55
2019-01-28T19:53:42.076Z,98253.55
2019-01-28T19:58:44.028Z,98264.80
2019-01-28T20:03:46.038Z,98273.42
2019-01-28T20:08:48.153Z,98281.69
2019-01-28T20:13:50.270Z,98292.95
2019-01-28T20:18:52.243Z,98307.20
2019-01-28T20:23:54.263Z,98315.14
2019-01-28T20:28:56.174Z,98313.81
2019-01-28T20:33:58.145Z,98333.53
2019-01-28T20:39:00.149Z,98345.93
2019-01-28T20:44:02.290Z,98344.94
2019-01-28T20:49:04.511Z,98363.98
2019-01-28T20:54:06.533Z,98371.58
2019-01-28T20:59:08.537Z,98373.91
2019-01-28T21:04:10.505Z,98389.77
2019-01-28T21:09:12.496Z,98389.94
2019-01-28T21:14:14.485Z,98408.44
2019-01-28T21:19:16.374Z,98414.22
2019-01-28T21:24:18.636Z,98433.34
2019-01-28T21:29:20.693Z,98434.45
2019-01-28T21:34:22.743Z,98446.95
2019-01-28T21:39:24.764Z,98459.19
2019-01-28T21:44:26.707Z,98472.28
2019-01-28T21:49:28.628Z,98486.77
2019-01-28T21:54:30.754Z,98510.38
2019-01-28T21:59:32.764Z,98504.18
2019-01-28T22:04:34.902Z,98498.70
2019-01-28T22:09:36.862Z,98521.98
2019-01-28T22:14:38.827Z,98514.16
2019-01-28T22:19:41.841Z,98515.92
2019-01-28T22:24:43.841Z,98533.42
2019-01-28T22:29:45.840Z,98533.75
2019-01-28T22:34:48.219Z,98556.02
2019-01-28T22:39:50.390Z,98574.53
2019-01-28T22:44:52.340Z,98564.58
2019-01-28T22:49:54.277Z,98591.03
2019-01-28T22:54:56.161Z,98600.75
2019-01-28T22:59:58.532Z,98602.23
2019-01-28T23:05:00.453Z,98607.92
2019-01-28T23:10:03.396Z,98596.81
2019-01-28T23:15:07.434Z,98608.84
2019-01-28T23:20:09.794Z,98619.49
2019-01-28T23:25:12.496Z,98627.72
2019-01-28T23:30:14.621Z,98642.63
2019-01-28T23:35:16.842Z,98649.90
2019-01-28T23:40:18.750Z,98663.12
2019-01-28T23:45:24.218Z,98678.88
2019-01-28T23:50:26.179Z,98665.33
2019-01-28T23:55:28.183Z,98689.32
